Details From VTSG - Krabi
To WMKP - Penang Intl
Flight Number -
Tags Generated
Created
Modified
Stats Distance 186 nm / 344 km
Max Altitude 0 ft / 0 m
Waypoints 2
Social Downloads 0
Likes 0
Share VATSIM

Download

Looking for another format? Having issues loading an existing format? Contact us
Advertisement - Login to hide

Notes

Generated

Route

VTSG WMKP

ID Type Via Altitude Latitude Longitude Leg Dist Tot Dist Heading (true) Name
O VTSG APT - 0 ft / 0 m 8.10647˚ 98.98012˚ - 0 nm - -
O WMKP APT - 0 ft / 0 m 5.28590˚ 100.26669˚ 185 nm 185 nm 156° / 156° -

Altitude Profile

Advertisement - Login to hide

Weather


0- 5 10 15 20 25 30 35+ Temperature / ° C

Clouds and Precipitation
Forecast for 2017-12-12 18:00 UTC. Updated 44 minutes ago

Ground ~20,000 ft ~40,000 ft Winds

VTSG

Details ICAO VTSG (KBV)
Name Krabi
Region Thailand
Timezone Asia/Bangkok (UTC+7.0)
Stats Elevation 82 ft / 25 m (AMSL)
Location 8.095977° 98.988763°
Runways 1
Magnetic Variation 0.388° W

METAR

VTSG 121800Z 03002KT 9000 FEW020 23/22 Q1012

Decode

TAF

TAF VTSG 121700Z 1218/1318 00000KT 5000 BR FEW020 BECMG 1301/1303 06005KT 9999 NSW BECMG 1308/1310 22004KT BECMG 1312/1314 00000KT 9000

Decode

Departure Runways

ID Width Length Bearing (true) Bearing (mag) Surface Threshold Offset Overrun Length
14 148 ft / 45 m 9,880 ft / 3,012 m 140.79° 141.18° Asphalt 0 ft / 0 m 197 ft / 60 m
32 148 ft / 45 m 9,880 ft / 3,012 m 320.80° 321.19° Asphalt 0 ft / 0 m 197 ft / 60 m

WMKP

Details ICAO WMKP (PEN)
Name Penang Intl
Region Malaysia (Peninsular Malaysia)
Timezone Asia/Kuala_Lumpur (UTC+8.0)
Stats Elevation 11 ft / 3 m (AMSL)
Location 5.297141° 100.276865°
Runways 1
Magnetic Variation 0.206° W

METAR

WMKP 121730Z 00000KT 8000 FEW025 SCT140 BKN270 27/23 Q1011 NOSIG

Decode

TAF

TAF WMKP 121100Z 1212/1312 03005KT 9000 FEW025 SCT140 BKN270

Decode

Destination Runways

ID Width Length Bearing (true) Bearing (mag) Surface Threshold Offset Overrun Length
04 150 ft / 46 m 11,042 ft / 3,366 m 42.02° 42.23° Asphalt 0 ft / 0 m 205 ft / 62 m
22 150 ft / 46 m 11,042 ft / 3,366 m 222.02° 222.23° Asphalt 0 ft / 0 m 205 ft / 62 m

Approach Navaids

Runway Type Ident Frequency Range Bearing (true) Bearing (mag) Slope Elevation
04 Localiser IPG 109.90 MHz 18 nm / 33 km 42.88° 43.09° - 12 ft / 4 m (AMSL)
04 Glidescope IPG 109.90 MHz 10 nm / 19 km 42.02° 42.22° 3.00° 11 ft / 3 m (AMSL)
04 DME IPG 109.90 MHz 18 nm / 33 km - - - 11 ft / 3 m (AMSL)